Time;durP1;ratioP1;P1;durP2;ratioP2;P2;SDS_P1;SDS_P2;PMS_P1;PMS_P2;Temp;Humidity;BMP_temperature;BMP_pressure;BME280_temperature;BME280_humidity;BME280_pressure;Samples;Min_cycle;Max_cycle;Signal;HPM_P1;HPM_P2
2022/12/17 13:07:28;;;;;;;45.22;25.38;;;-2.80;99.90;;;;;;12588885;28;20496;-83
2022/12/17 13:13:35;;;;;;;44.17;24.98;;;-2.80;99.90;;;;;;12581442;28;20044;-83
2022/12/17 13:19:43;;;;;;;48.75;25.17;;;-2.70;99.90;;;;;;12589917;28;20047;-83
2022/12/17 13:25:45;;;;;;;52.88;27.38;;;-2.90;99.90;;;;;;12598925;28;20044;-83
2022/12/17 13:32:05;;;;;;;47.10;24.90;;;-3.00;99.90;;;;;;12652922;28;20052;-83
2022/12/17 13:38:48;;;;;;;52.83;26.17;;;-3.20;99.90;;;;;;12668239;28;20051;-83
2022/12/17 13:44:54;;;;;;;48.45;25.50;;;-3.40;99.90;;;;;;12672807;28;20055;-83
2022/12/17 13:51:04;;;;;;;49.88;28.48;;;-3.60;99.90;;;;;;12691048;28;20053;-83
2022/12/17 13:57:13;;;;;;;44.78;25.70;;;-3.70;99.90;;;;;;12673833;28;20059;-83
2022/12/17 14:03:20;;;;;;;52.38;27.58;;;-3.80;99.90;;;;;;12670756;28;20180;-83
2022/12/17 14:09:43;;;;;;;61.03;29.45;;;-3.70;99.90;;;;;;12673955;28;20514;-83
2022/12/17 14:15:48;;;;;;;47.92;24.65;;;-4.00;99.90;;;;;;12674245;28;20196;-83
2022/12/17 14:21:50;;;;;;;48.10;27.25;;;-4.00;99.90;;;;;;12675002;28;20044;-83
2022/12/17 14:28:01;;;;;;;55.42;29.10;;;-4.10;99.90;;;;;;12691158;28;20491;-83
2022/12/17 14:34:09;;;;;;;53.20;28.20;;;-4.20;99.90;;;;;;12675392;28;20491;-83
2022/12/17 14:40:14;;;;;;;55.00;28.40;;;-4.40;99.90;;;;;;12698503;28;20044;-83
2022/12/17 14:46:19;;;;;;;57.90;30.17;;;-4.50;99.90;;;;;;12673753;28;20040;-83
2022/12/17 14:52:31;;;;;;;59.03;31.40;;;-4.50;99.90;;;;;;12663617;28;20055;-83
2022/12/17 14:58:44;;;;;;;57.20;30.80;;;-4.60;99.90;;;;;;12670927;27;20131;-83
2022/12/17 15:04:46;;;;;;;63.25;30.73;;;-4.70;99.90;;;;;;12667433;28;20503;-84
2022/12/17 15:10:48;;;;;;;61.00;32.60;;;-4.90;99.90;;;;;;12679054;27;20070;-83
2022/12/17 15:16:50;;;;;;;60.25;31.10;;;-5.00;99.90;;;;;;12681137;28;20201;-84
2022/12/17 15:22:52;;;;;;;64.97;33.40;;;-5.00;99.90;;;;;;12685894;28;20043;-84
2022/12/17 15:28:54;;;;;;;60.90;29.38;;;-5.00;99.90;;;;;;12552454;28;20041;-84
2022/12/17 15:34:55;;;;;;;62.58;30.55;;;-5.10;99.90;;;;;;12589443;28;20036;-84
2022/12/17 15:43:09;;;;;;;61.22;31.42;;;-5.20;99.90;;;;;;12585422;28;20036;-84
2022/12/17 15:47:23;;;;;;;62.90;31.85;;;-5.30;99.90;;;;;;12582189;28;20063;-83
2022/12/17 15:53:25;;;;;;;61.55;29.17;;;-5.30;99.90;;;;;;12586513;28;20047;-83
2022/12/17 15:59:27;;;;;;;67.55;32.55;;;-5.50;99.90;;;;;;12577453;28;20048;-83
2022/12/17 16:05:29;;;;;;;60.72;29.88;;;-5.50;99.90;;;;;;12587601;28;20049;-83
2022/12/17 16:11:31;;;;;;;61.17;31.92;;;-5.40;99.90;;;;;;12580396;28;20056;-83
2022/12/17 16:17:33;;;;;;;57.38;29.70;;;-5.60;99.90;;;;;;12584773;28;20484;-84
2022/12/17 16:23:35;;;;;;;59.35;31.63;;;-5.70;99.90;;;;;;12591041;28;20056;-83
2022/12/17 16:29:37;;;;;;;59.20;30.17;;;-5.60;99.90;;;;;;12580924;28;20060;-83
2022/12/17 16:35:39;;;;;;;55.40;27.90;;;-5.60;99.90;;;;;;12564490;28;20036;-83
2022/12/17 16:41:42;;;;;;;49.42;24.75;;;-5.80;99.90;;;;;;12580735;28;20071;-83
2022/12/17 16:47:44;;;;;;;50.25;25.08;;;-5.80;99.90;;;;;;12590809;28;20048;-84
2022/12/17 16:53:45;;;;;;;58.88;28.88;;;-5.80;99.90;;;;;;12583932;28;20485;-84
2022/12/17 16:59:47;;;;;;;52.78;28.02;;;-5.80;99.90;;;;;;12593427;28;20048;-83
2022/12/17 17:05:49;;;;;;;49.83;25.83;;;-5.70;99.90;;;;;;12564039;28;20048;-84
2022/12/17 17:11:54;;;;;;;41.78;19.90;;;-5.60;99.90;;;;;;12564516;28;20404;-84
2022/12/17 17:17:56;;;;;;;34.72;16.83;;;-5.50;99.90;;;;;;12581510;28;20040;-84
2022/12/17 17:24:14;;;;;;;27.48;14.30;;;-5.30;99.90;;;;;;12566855;28;20044;-83
2022/12/17 17:30:22;;;;;;;28.52;12.95;;;-5.30;99.90;;;;;;12554616;28;20040;-84
2022/12/17 17:36:26;;;;;;;26.83;12.93;;;-5.20;99.90;;;;;;12585057;28;20060;-84
2022/12/17 17:42:28;;;;;;;;;;;-5.30;99.90;;;;;;12584315;28;20044;-84
2022/12/17 17:48:32;;;;;;;69.32;35.33;;;-5.50;99.90;;;;;;12572586;28;19920;-84
2022/12/17 17:54:34;;;;;;;75.70;38.22;;;-5.60;99.90;;;;;;12591823;28;20036;-84
2022/12/17 18:00:36;;;;;;;67.05;33.30;;;-5.70;99.90;;;;;;12590480;28;20040;-83
2022/12/17 18:06:39;;;;;;;70.57;34.65;;;-5.80;99.90;;;;;;12577001;28;20412;-84
2022/12/17 18:19:22;;;;;;;102.18;48.33;;;-6.00;99.90;;;;;;12588465;28;20147;-84
2022/12/17 18:25:23;;;;;;;99.60;47.97;;;-5.90;99.90;;;;;;12552024;28;20037;-84
2022/12/17 18:31:25;;;;;;;93.68;45.17;;;-5.90;99.90;;;;;;12581943;28;20051;-84
2022/12/17 18:37:27;;;;;;;86.40;42.60;;;-6.00;99.90;;;;;;12568187;28;20041;-83
2022/12/17 18:43:29;;;;;;;86.88;43.83;;;-6.10;99.90;;;;;;12584080;28;20052;-84
2022/12/17 18:49:31;;;;;;;90.65;45.58;;;-6.20;99.90;;;;;;12593525;28;20052;-84
2022/12/17 18:55:34;;;;;;;89.95;44.55;;;-6.20;99.90;;;;;;12576371;28;20037;-84
2022/12/17 19:01:36;;;;;;;87.55;41.47;;;-6.30;99.90;;;;;;12580663;28;20385;-83
2022/12/17 19:07:38;;;;;;;86.78;43.38;;;-6.30;99.90;;;;;;12586726;28;20044;-84
2022/12/17 19:13:40;;;;;;;97.68;47.50;;;-6.30;99.90;;;;;;12586298;28;20040;-84
2022/12/17 19:19:42;;;;;;;84.85;43.80;;;-6.30;99.90;;;;;;12587223;28;20055;-84
2022/12/17 19:25:43;;;;;;;88.32;43.03;;;-6.40;99.90;;;;;;12589254;28;20044;-84
2022/12/17 19:31:45;;;;;;;94.10;48.05;;;-6.40;99.90;;;;;;12585817;28;20044;-84
2022/12/17 19:37:48;;;;;;;88.75;44.15;;;-6.30;99.90;;;;;;12560982;28;20040;-84
2022/12/17 19:43:58;;;;;;;80.25;38.25;;;-6.30;99.90;;;;;;12572001;28;20040;-84
2022/12/17 19:50:00;;;;;;;86.68;41.97;;;-6.40;99.90;;;;;;12575090;28;20056;-84
2022/12/17 19:56:22;;;;;;;94.55;44.15;;;-6.40;99.90;;;;;;12574408;28;20048;-84
2022/12/17 20:02:23;;;;;;;66.68;31.98;;;-6.50;99.90;;;;;;12560116;28;20501;-84
2022/12/17 20:08:33;;;;;;;67.20;33.17;;;-6.40;99.90;;;;;;12577161;28;20515;-84
2022/12/17 20:14:36;;;;;;;66.78;33.88;;;-6.40;99.90;;;;;;12566446;28;20040;-84
2022/12/17 20:20:38;;;;;;;98.15;47.47;;;-6.50;99.90;;;;;;12568379;28;20136;-84
2022/12/17 20:26:40;;;;;;;94.70;46.50;;;-6.50;99.90;;;;;;12586685;28;20400;-84
2022/12/17 20:32:42;;;;;;;93.70;44.63;;;-6.60;99.90;;;;;;12588188;28;20044;-84
2022/12/17 20:38:44;;;;;;;91.15;44.80;;;-6.70;99.90;;;;;;12594814;28;20079;-84
2022/12/17 20:44:46;;;;;;;91.18;46.22;;;-6.80;99.90;;;;;;12590486;28;20051;-84
2022/12/17 20:50:54;;;;;;;77.65;36.83;;;-6.80;99.90;;;;;;12582379;28;20404;-84
2022/12/17 20:56:55;;;;;;;22.63;10.10;;;-6.80;99.90;;;;;;12565347;28;20040;-84
2022/12/17 21:02:57;;;;;;;22.35;9.07;;;-6.10;99.90;;;;;;12574083;28;20045;-84
2022/12/17 21:09:00;;;;;;;24.67;9.88;;;-5.50;99.90;;;;;;12562094;28;20045;-84
2022/12/17 21:15:02;;;;;;;18.67;7.82;;;-5.30;99.90;;;;;;12590971;28;20048;-84
2022/12/17 21:21:07;;;;;;;17.38;8.13;;;-5.10;99.90;;;;;;12591253;28;20044;-84
2022/12/17 21:27:09;;;;;;;18.67;8.23;;;-5.20;99.90;;;;;;12590504;28;20135;-84
2022/12/17 21:33:15;;;;;;;14.93;7.15;;;-5.00;99.90;;;;;;12580747;28;20508;-84
2022/12/17 21:39:18;;;;;;;14.55;7.00;;;-5.00;99.90;;;;;;12590132;28;20049;-84
2022/12/17 21:45:20;;;;;;;15.43;6.90;;;-4.90;99.90;;;;;;12579089;28;20040;-83
2022/12/17 21:51:23;;;;;;;19.45;7.03;;;-4.70;99.90;;;;;;12595955;28;20056;-84
2022/12/17 21:57:25;;;;;;;15.25;7.03;;;-4.50;99.90;;;;;;12593769;28;20041;-84
2022/12/17 22:03:26;;;;;;;11.25;6.30;;;-4.50;99.90;;;;;;12593475;28;20405;-84
2022/12/17 22:09:28;;;;;;;17.27;7.82;;;-4.50;99.90;;;;;;12570508;28;20064;-84
2022/12/17 22:15:54;;;;;;;12.75;5.90;;;-4.60;99.90;;;;;;12575966;28;20056;-84
2022/12/17 22:21:56;;;;;;;13.93;5.38;;;-4.50;99.90;;;;;;12581788;28;20135;-84
2022/12/17 22:27:58;;;;;;;12.95;5.60;;;-4.40;99.90;;;;;;12606239;28;20044;-84
2022/12/17 22:34:01;;;;;;;10.13;5.50;;;-4.40;99.90;;;;;;12556663;28;20508;-84
2022/12/17 22:40:22;;;;;;;12.00;5.38;;;-4.50;99.90;;;;;;12550071;28;20063;-84
2022/12/17 22:46:44;;;;;;;11.48;5.10;;;-4.40;99.90;;;;;;12538765;28;20052;-84
2022/12/17 22:52:46;;;;;;;13.63;5.82;;;-4.40;99.90;;;;;;12551372;28;20045;-83
2022/12/17 22:58:49;;;;;;;12.02;5.75;;;-4.40;99.90;;;;;;12545618;28;20041;-84
2022/12/17 23:04:50;;;;;;;12.48;5.43;;;-4.30;99.90;;;;;;12550549;28;20045;-84
2022/12/17 23:10:52;;;;;;;50.97;27.73;;;-4.20;99.90;;;;;;12532102;28;20055;-84
2022/12/17 23:16:54;;;;;;;79.93;41.00;;;-4.20;99.90;;;;;;12521667;28;20048;-84
2022/12/17 23:22:56;;;;;;;54.45;28.30;;;-4.40;99.90;;;;;;12552476;28;20405;-84
2022/12/17 23:29:03;;;;;;;11.43;5.47;;;-5.00;99.90;;;;;;12540305;28;20056;-84
2022/12/17 23:35:06;;;;;;;13.00;5.60;;;-5.10;99.90;;;;;;12565706;28;20037;-84
2022/12/17 23:41:17;;;;;;;;;;;-4.70;99.90;;;;;;12585276;28;20100;-84
2022/12/17 23:47:19;;;;;;;13.27;5.32;;;-4.60;99.90;;;;;;12563582;28;19931;-84
2022/12/17 23:53:21;;;;;;;9.60;5.22;;;-4.50;99.90;;;;;;12577921;28;20044;-84
2022/12/17 23:59:23;;;;;;;59.60;30.88;;;-4.60;99.90;;;;;;12587437;28;20075;-84
